createdAt,value
2018-04-17T00:00:20.126Z,1034.56
2018-04-17T00:01:20.118Z,1034.57
2018-04-17T00:02:20.111Z,1034.59
2018-04-17T00:03:20.103Z,1034.64
2018-04-17T00:04:20.095Z,1034.65
2018-04-17T00:05:20.088Z,1034.65
2018-04-17T00:06:20.080Z,1034.63
2018-04-17T00:07:20.073Z,1034.61
2018-04-17T00:08:20.065Z,1034.61
2018-04-17T00:09:20.058Z,1034.56
2018-04-17T00:10:20.057Z,1034.58
2018-04-17T00:11:20.043Z,1034.6
2018-04-17T00:12:20.036Z,1034.54
2018-04-17T00:13:20.029Z,1034.5
2018-04-17T00:14:20.021Z,1034.48
2018-04-17T00:15:20.015Z,1034.49
2018-04-17T00:16:20.006Z,1034.48
2018-04-17T00:17:20.007Z,1034.46
2018-04-17T00:18:19.991Z,1034.48
2018-04-17T00:19:19.986Z,1034.47
2018-04-17T00:20:19.980Z,1034.47
2018-04-17T00:21:19.969Z,1034.49
2018-04-17T00:22:19.962Z,1034.46
2018-04-17T00:23:19.956Z,1034.47
2018-04-17T00:24:19.947Z,1034.47
2018-04-17T00:25:19.940Z,1034.43
2018-04-17T00:26:19.932Z,1034.45
2018-04-17T00:27:19.926Z,1034.48
2018-04-17T00:28:19.918Z,1034.49
2018-04-17T00:29:19.911Z,1034.44
2018-04-17T00:30:19.905Z,1034.47
2018-04-17T00:31:19.898Z,1034.44
2018-04-17T00:32:19.891Z,1034.48
2018-04-17T00:33:19.881Z,1034.49
2018-04-17T00:34:19.874Z,1034.48
2018-04-17T00:35:19.868Z,1034.5
2018-04-17T00:36:19.865Z,1034.45
2018-04-17T00:37:19.854Z,1034.47
2018-04-17T00:38:19.846Z,1034.45
2018-04-17T00:39:19.839Z,1034.42
2018-04-17T00:40:19.833Z,1034.44
2018-04-17T00:41:19.825Z,1034.38
2018-04-17T00:42:19.819Z,1034.39
2018-04-17T00:43:19.812Z,1034.42
2018-04-17T00:44:19.804Z,1034.45
2018-04-17T00:45:19.798Z,1034.52
2018-04-17T00:46:19.791Z,1034.51
2018-04-17T00:47:19.785Z,1034.51
2018-04-17T00:48:19.776Z,1034.47
2018-04-17T00:49:19.770Z,1034.49
2018-04-17T00:50:19.764Z,1034.54
2018-04-17T00:51:19.758Z,1034.57
2018-04-17T00:52:19.749Z,1034.62
2018-04-17T00:53:19.742Z,1034.66
2018-04-17T00:54:19.750Z,1034.71
2018-04-17T00:55:19.731Z,1034.82
2018-04-17T00:56:19.722Z,1034.89
2018-04-17T00:57:19.715Z,1034.96
2018-04-17T00:58:19.709Z,1035.04
2018-04-17T00:59:19.701Z,1035.08
2018-04-17T01:00:19.694Z,1035.16
2018-04-17T01:01:19.693Z,1035.18
2018-04-17T01:02:19.682Z,1035.24
2018-04-17T01:03:19.673Z,1035.28
2018-04-17T01:04:19.667Z,1035.27
2018-04-17T01:05:19.660Z,1035.3
2018-04-17T01:06:19.652Z,1035.26
2018-04-17T01:07:19.646Z,1035.27
2018-04-17T01:08:19.638Z,1035.26
2018-04-17T01:09:19.632Z,1035.25
2018-04-17T01:10:19.624Z,1035.28
2018-04-17T01:11:19.617Z,1035.34
2018-04-17T01:12:19.610Z,1035.43
2018-04-17T01:13:19.603Z,1035.52
2018-04-17T01:14:19.595Z,1035.51
2018-04-17T01:15:19.589Z,1035.53
2018-04-17T01:16:19.582Z,1035.62
2018-04-17T01:17:19.573Z,1035.64
2018-04-17T01:18:19.567Z,1035.67
2018-04-17T01:19:19.559Z,1035.71
2018-04-17T01:20:19.552Z,1035.79
2018-04-17T01:21:19.544Z,1035.78
2018-04-17T01:22:19.536Z,1035.79
2018-04-17T01:23:19.529Z,1035.84
2018-04-17T01:24:19.522Z,1035.89
2018-04-17T01:25:19.513Z,1035.94
2018-04-17T01:26:19.514Z,1035.96
2018-04-17T01:27:19.500Z,1036.01
2018-04-17T01:28:19.491Z,1036.03
2018-04-17T01:29:19.483Z,1036.03
2018-04-17T01:30:19.476Z,1036.05
2018-04-17T01:31:19.469Z,1036.07
2018-04-17T01:32:19.467Z,1036.04
2018-04-17T01:33:19.454Z,1036.09
2018-04-17T01:34:19.446Z,1036.1
2018-04-17T01:35:19.439Z,1036.11
2018-04-17T01:36:19.453Z,1036.12
2018-04-17T01:37:19.422Z,1036.21
2018-04-17T01:38:19.415Z,1036.2
2018-04-17T01:39:19.407Z,1036.23
2018-04-17T01:40:19.399Z,1036.23
2018-04-17T01:41:19.391Z,1036.29
2018-04-17T01:42:19.383Z,1036.29
2018-04-17T01:43:19.375Z,1036.28
2018-04-17T01:44:19.367Z,1036.27
2018-04-17T01:45:19.360Z,1036.24
2018-04-17T01:46:19.352Z,1036.24
2018-04-17T01:47:19.344Z,1036.23
2018-04-17T01:48:19.338Z,1036.25
2018-04-17T01:49:19.327Z,1036.33
2018-04-17T01:50:19.320Z,1036.37
2018-04-17T01:51:19.312Z,1036.45
2018-04-17T01:52:19.304Z,1036.48
2018-04-17T01:53:19.297Z,1036.49
2018-04-17T01:54:19.288Z,1036.52
2018-04-17T01:55:19.281Z,1036.57
2018-04-17T01:56:19.273Z,1036.58
2018-04-17T01:57:19.266Z,1036.62
2018-04-17T01:58:19.258Z,1036.62
2018-04-17T01:59:19.256Z,1036.63
2018-04-17T02:00:19.243Z,1036.68
2018-04-17T02:01:19.239Z,1036.71
2018-04-17T02:02:19.226Z,1036.73
2018-04-17T02:03:19.219Z,1036.78
2018-04-17T02:04:19.210Z,1036.8
2018-04-17T02:05:19.202Z,1036.84
2018-04-17T02:06:19.193Z,1036.88
2018-04-17T02:07:19.186Z,1036.88
2018-04-17T02:08:19.181Z,1036.88
2018-04-17T02:09:19.169Z,1036.9
2018-04-17T02:10:19.161Z,1036.94
2018-04-17T02:11:19.153Z,1036.93
2018-04-17T02:12:19.148Z,1036.97
2018-04-17T02:13:19.136Z,1036.98
2018-04-17T02:14:19.127Z,1036.96
2018-04-17T02:15:19.119Z,1037.02
2018-04-17T02:16:19.111Z,1037.02
2018-04-17T02:17:19.102Z,1037.05
2018-04-17T02:18:19.096Z,1037.03
2018-04-17T02:19:19.085Z,1037.06
2018-04-17T02:20:19.076Z,1037.12
2018-04-17T02:21:19.068Z,1037.13
2018-04-17T02:22:19.060Z,1037.14
2018-04-17T02:23:19.053Z,1037.16
2018-04-17T02:24:19.042Z,1037.17
2018-04-17T02:25:19.035Z,1037.15
2018-04-17T02:26:19.029Z,1037.19
2018-04-17T02:27:19.019Z,1037.22
2018-04-17T02:28:19.009Z,1037.27
2018-04-17T02:29:19.000Z,1037.28
2018-04-17T02:30:18.991Z,1037.3
2018-04-17T02:31:18.984Z,1037.32
2018-04-17T02:32:18.975Z,1037.29
2018-04-17T02:33:18.967Z,1037.31
2018-04-17T02:34:18.957Z,1037.32
2018-04-17T02:35:18.949Z,1037.37
2018-04-17T02:36:18.941Z,1037.35
2018-04-17T02:37:18.934Z,1037.37
2018-04-17T02:38:18.924Z,1037.39
2018-04-17T02:39:18.916Z,1037.41
2018-04-17T02:40:18.907Z,1037.41
2018-04-17T02:41:18.897Z,1037.42
2018-04-17T02:42:18.889Z,1037.42
2018-04-17T02:43:18.880Z,1037.47
2018-04-17T02:44:18.871Z,1037.46
2018-04-17T02:45:18.863Z,1037.45
2018-04-17T02:46:18.863Z,1037.44
2018-04-17T02:47:18.844Z,1037.47
2018-04-17T02:48:18.838Z,1037.5
2018-04-17T02:49:18.826Z,1037.52
2018-04-17T02:50:18.818Z,1037.53
2018-04-17T02:51:18.809Z,1037.53
2018-04-17T02:52:18.800Z,1037.59
2018-04-17T02:53:18.792Z,1037.55
2018-04-17T02:54:18.784Z,1037.58
2018-04-17T02:55:18.775Z,1037.6
2018-04-17T02:56:18.767Z,1037.6
2018-04-17T02:57:18.756Z,1037.63
2018-04-17T02:58:18.747Z,1037.65
2018-04-17T02:59:18.738Z,1037.64
2018-04-17T03:00:18.728Z,1037.68
2018-04-17T03:01:18.720Z,1037.66
2018-04-17T03:02:18.711Z,1037.63
2018-04-17T03:03:18.700Z,1037.68
2018-04-17T03:04:18.695Z,1037.67
2018-04-17T03:05:18.684Z,1037.68
2018-04-17T03:06:18.677Z,1037.67
2018-04-17T03:07:18.667Z,1037.7
2018-04-17T03:08:18.658Z,1037.67
2018-04-17T03:09:18.649Z,1037.68
2018-04-17T03:10:18.642Z,1037.69
2018-04-17T03:11:18.630Z,1037.68
2018-04-17T03:12:18.621Z,1037.71
2018-04-17T03:13:18.613Z,1037.73
2018-04-17T03:14:18.603Z,1037.72
2018-04-17T03:15:18.595Z,1037.75
2018-04-17T03:16:18.586Z,1037.75
2018-04-17T03:17:18.577Z,1037.8
2018-04-17T03:18:18.571Z,1037.8
2018-04-17T03:19:18.564Z,1037.83
2018-04-17T03:20:18.550Z,1037.86
2018-04-17T03:21:18.542Z,1037.85
2018-04-17T03:22:18.532Z,1037.87
2018-04-17T03:23:18.523Z,1037.87
2018-04-17T03:24:18.514Z,1037.83
2018-04-17T03:25:18.505Z,1037.88
2018-04-17T03:26:18.496Z,1037.89
2018-04-17T03:27:18.487Z,1037.89
2018-04-17T03:28:18.478Z,1037.85
2018-04-17T03:29:18.469Z,1037.9
2018-04-17T03:30:18.461Z,1037.87
2018-04-17T03:31:18.452Z,1037.92
2018-04-17T03:32:18.448Z,1037.93
2018-04-17T03:33:18.434Z,1037.96
2018-04-17T03:34:18.424Z,1037.96
2018-04-17T03:35:18.416Z,1037.99
2018-04-17T03:36:18.405Z,1038
2018-04-17T03:37:18.396Z,1038.06
2018-04-17T03:38:18.391Z,1038.05
2018-04-17T03:39:18.378Z,1038.1
2018-04-17T03:40:18.369Z,1038.14
2018-04-17T03:41:18.359Z,1038.14
2018-04-17T03:42:18.360Z,1038.18
2018-04-17T03:43:18.347Z,1038.17
2018-04-17T03:44:18.332Z,1038.2
2018-04-17T03:45:18.323Z,1038.21
2018-04-17T03:46:18.313Z,1038.21
2018-04-17T03:47:18.303Z,1038.23
2018-04-17T03:48:18.295Z,1038.21
2018-04-17T03:49:18.285Z,1038.27
2018-04-17T03:50:18.277Z,1038.27
2018-04-17T03:51:18.267Z,1038.23
2018-04-17T03:52:18.262Z,1038.27
2018-04-17T03:53:18.249Z,1038.23
2018-04-17T03:54:18.239Z,1038.19
2018-04-17T03:55:18.229Z,1038.21
2018-04-17T03:56:18.220Z,1038.24
2018-04-17T03:57:18.212Z,1038.25
2018-04-17T03:58:18.201Z,1038.25
2018-04-17T03:59:18.193Z,1038.28
2018-04-17T04:00:18.183Z,1038.3
2018-04-17T04:01:18.176Z,1038.3
2018-04-17T04:02:18.164Z,1038.28
2018-04-17T04:03:18.163Z,1038.33
2018-04-17T04:04:18.147Z,1038.31
2018-04-17T04:05:18.136Z,1038.37
2018-04-17T04:06:18.127Z,1038.36
2018-04-17T04:07:18.118Z,1038.39
2018-04-17T04:08:18.109Z,1038.41
2018-04-17T04:09:18.100Z,1038.38
2018-04-17T04:10:18.091Z,1038.42
2018-04-17T04:11:18.082Z,1038.41
2018-04-17T04:12:18.072Z,1038.47
2018-04-17T04:13:18.076Z,1038.45
2018-04-17T04:14:18.053Z,1038.43
2018-04-17T04:15:18.045Z,1038.46
2018-04-17T04:16:18.035Z,1038.46
2018-04-17T04:17:18.025Z,1038.4
2018-04-17T04:18:18.016Z,1038.44
2018-04-17T04:19:18.007Z,1038.39
2018-04-17T04:20:17.999Z,1038.42
2018-04-17T04:21:17.987Z,1038.44
2018-04-17T04:22:17.979Z,1038.44
2018-04-17T04:23:17.972Z,1038.42
2018-04-17T04:24:17.960Z,1038.44
2018-04-17T04:25:17.951Z,1038.41
2018-04-17T04:26:17.944Z,1038.45
2018-04-17T04:27:17.932Z,1038.45
2018-04-17T04:28:17.922Z,1038.42
2018-04-17T04:29:17.913Z,1038.48
2018-04-17T04:30:17.916Z,1038.45
2018-04-17T04:31:17.895Z,1038.47
2018-04-17T04:32:17.887Z,1038.46
2018-04-17T04:33:17.882Z,1038.45
2018-04-17T04:34:17.868Z,1038.4
2018-04-17T04:35:17.858Z,1038.36
2018-04-17T04:36:17.854Z,1038.29
2018-04-17T04:37:17.839Z,1038.28
2018-04-17T04:38:17.830Z,1038.24
2018-04-17T04:39:17.822Z,1038.2
2018-04-17T04:40:17.812Z,1038.18
2018-04-17T04:41:17.803Z,1038.1
2018-04-17T04:42:17.795Z,1038.05
2018-04-17T04:43:17.785Z,1037.94
2018-04-17T04:44:17.778Z,1037.87
2018-04-17T04:45:17.769Z,1037.81
2018-04-17T04:46:17.759Z,1037.76
2018-04-17T04:47:17.750Z,1037.71
2018-04-17T04:48:17.742Z,1037.66
2018-04-17T04:49:17.733Z,1037.57
2018-04-17T04:50:17.725Z,1037.51
2018-04-17T04:51:17.717Z,1037.43
2018-04-17T04:52:17.708Z,1037.34
2018-04-17T04:53:17.701Z,1037.23
2018-04-17T04:54:17.692Z,1037.16
2018-04-17T04:55:17.683Z,1037.04
2018-04-17T04:56:17.676Z,1036.96
2018-04-17T04:57:17.677Z,1036.9
2018-04-17T04:58:17.663Z,1036.82
2018-04-17T04:59:17.654Z,1036.75
2018-04-17T05:00:17.653Z,1036.63
2018-04-17T05:01:17.637Z,1036.53
2018-04-17T05:02:17.633Z,1036.43
2018-04-17T05:03:17.623Z,1036.36
2018-04-17T05:04:17.615Z,1036.28
2018-04-17T05:05:17.608Z,1036.23
2018-04-17T05:06:17.602Z,1036.12
2018-04-17T05:07:17.596Z,1036.06
2018-04-17T05:08:17.590Z,1035.95
2018-04-17T05:09:17.584Z,1035.87
2018-04-17T05:10:17.580Z,1035.77
2018-04-17T05:11:17.569Z,1035.69
2018-04-17T05:12:17.569Z,1035.63
2018-04-17T05:13:17.559Z,1035.58
2018-04-17T05:14:17.553Z,1035.5
2018-04-17T05:15:17.548Z,1035.38
2018-04-17T05:16:17.540Z,1035.28
2018-04-17T05:17:17.535Z,1035.15
2018-04-17T05:18:17.533Z,1035.11
2018-04-17T05:19:17.524Z,1034.99
2018-04-17T05:20:17.519Z,1034.88
2018-04-17T05:21:17.516Z,1034.77
2018-04-17T05:22:17.509Z,1034.63
2018-04-17T05:23:17.504Z,1034.58
2018-04-17T05:24:17.500Z,1034.48
2018-04-17T05:25:17.496Z,1034.44
2018-04-17T05:26:17.497Z,1034.36
2018-04-17T05:27:17.487Z,1034.3
2018-04-17T05:28:17.483Z,1034.22
2018-04-17T05:29:17.478Z,1034.09
2018-04-17T05:30:17.475Z,1034
2018-04-17T05:31:17.471Z,1033.92
2018-04-17T05:32:17.468Z,1033.81
2018-04-17T05:33:17.464Z,1033.71
2018-04-17T05:34:17.524Z,1033.62
2018-04-17T05:35:17.458Z,1033.59
2018-04-17T05:36:17.456Z,1033.59
2018-04-17T05:37:17.457Z,1033.57
2018-04-17T05:38:17.451Z,1033.57
2018-04-17T05:39:17.453Z,1033.53
2018-04-17T05:40:17.445Z,1033.49
2018-04-17T05:41:17.447Z,1033.59
2018-04-17T05:42:17.441Z,1033.61
2018-04-17T05:43:17.439Z,1033.66
2018-04-17T05:44:17.437Z,1033.57
2018-04-17T05:45:17.436Z,1033.46
2018-04-17T05:46:17.434Z,1033.43
2018-04-17T05:47:17.441Z,1033.41
2018-04-17T05:48:17.436Z,1033.34
2018-04-17T05:49:17.431Z,1033.23
2018-04-17T05:50:17.437Z,1033.2
2018-04-17T05:51:17.432Z,1033.13
2018-04-17T05:52:17.427Z,1033.01
2018-04-17T05:53:17.426Z,1032.94
2018-04-17T05:54:17.425Z,1032.83
2018-04-17T05:55:17.423Z,1032.78
2018-04-17T05:56:17.423Z,1032.74
2018-04-17T05:57:17.434Z,1032.7
2018-04-17T05:58:17.426Z,1032.62
2018-04-17T05:59:17.422Z,1032.55
2018-04-17T06:00:17.424Z,1032.52
2018-04-17T06:01:17.424Z,1032.43
2018-04-17T06:02:17.423Z,1032.31
2018-04-17T06:03:17.436Z,1032.22
2018-04-17T06:04:17.430Z,1032.14
2018-04-17T06:05:17.434Z,1032.09
2018-04-17T06:06:17.433Z,1032.01
2018-04-17T06:07:17.429Z,1031.97
2018-04-17T06:08:17.431Z,1031.93
2018-04-17T06:09:17.436Z,1031.89
2018-04-17T06:10:17.434Z,1031.84
2018-04-17T06:11:17.435Z,1031.76
2018-04-17T06:12:17.449Z,1031.67
2018-04-17T06:13:17.441Z,1031.64
2018-04-17T06:14:17.443Z,1031.65
2018-04-17T06:15:17.445Z,1031.52
2018-04-17T06:16:17.448Z,1031.46
2018-04-17T06:17:17.450Z,1031.37
2018-04-17T06:18:17.453Z,1031.33
2018-04-17T06:19:17.456Z,1031.23
2018-04-17T06:20:17.462Z,1031.16
2018-04-17T06:21:17.465Z,1031.18
2018-04-17T06:22:17.468Z,1031.11
2018-04-17T06:23:17.487Z,1031.03
2018-04-17T06:24:17.473Z,1030.97
2018-04-17T06:25:17.478Z,1030.92
2018-04-17T06:26:17.482Z,1030.93
2018-04-17T06:27:17.487Z,1030.92
2018-04-17T06:28:17.491Z,1030.93
2018-04-17T06:29:17.501Z,1030.9
2018-04-17T06:30:17.501Z,1030.92
2018-04-17T06:31:17.533Z,1030.92
2018-04-17T06:32:17.510Z,1030.85
2018-04-17T06:33:17.517Z,1030.83
2018-04-17T06:34:17.519Z,1030.87
2018-04-17T06:35:17.524Z,1030.89
2018-04-17T06:36:17.530Z,1030.9
2018-04-17T06:37:17.536Z,1030.85
2018-04-17T06:38:17.544Z,1030.82
2018-04-17T06:39:17.546Z,1030.87
2018-04-17T06:40:17.552Z,1030.79
2018-04-17T06:41:17.558Z,1030.81
2018-04-17T06:42:17.564Z,1030.82
2018-04-17T06:43:17.570Z,1030.79
2018-04-17T06:44:17.576Z,1030.78
2018-04-17T06:45:17.586Z,1030.77
2018-04-17T06:46:17.590Z,1030.76
2018-04-17T06:47:17.641Z,1030.71
2018-04-17T06:48:17.604Z,1030.62
2018-04-17T06:49:17.609Z,1030.59
2018-04-17T06:50:17.620Z,1030.52
2018-04-17T06:51:17.622Z,1030.61
2018-04-17T06:52:17.629Z,1030.58
2018-04-17T06:53:17.636Z,1030.5
2018-04-17T06:54:17.642Z,1030.63
2018-04-17T06:55:17.651Z,1030.55
2018-04-17T06:56:17.657Z,1030.47
2018-04-17T06:57:17.672Z,1030.36
2018-04-17T06:58:17.674Z,1030.29
2018-04-17T06:59:17.680Z,1030.32
2018-04-17T07:00:17.689Z,1030.13
2018-04-17T07:01:17.696Z,1030.1
2018-04-17T07:02:17.708Z,1030.09
2018-04-17T07:03:17.749Z,1030.16
2018-04-17T07:04:17.721Z,1030.08
2018-04-17T07:05:17.735Z,1030.04
2018-04-17T07:06:17.739Z,1030.01
2018-04-17T07:07:17.747Z,1030.03
2018-04-17T07:08:17.759Z,1030.06
2018-04-17T07:09:17.764Z,1030.08
2018-04-17T07:10:17.773Z,1030.05
2018-04-17T07:11:17.783Z,1030.13
2018-04-17T07:12:17.791Z,1030.04
2018-04-17T07:13:17.806Z,1030.2
2018-04-17T07:14:17.813Z,1030.29
2018-04-17T07:15:17.823Z,1030.31
2018-04-17T07:16:17.830Z,1030.31
2018-04-17T07:17:17.837Z,1030.35
2018-04-17T07:18:17.853Z,1030.44
2018-04-17T07:19:17.854Z,1030.55
2018-04-17T07:20:17.864Z,1030.6
2018-04-17T07:21:17.873Z,1030.61
2018-04-17T07:22:17.884Z,1030.61
2018-04-17T07:23:17.891Z,1030.7
2018-04-17T07:24:17.900Z,1030.65
2018-04-17T07:25:17.910Z,1030.84
2018-04-17T07:26:17.919Z,1030.74
2018-04-17T07:27:17.928Z,1030.73
2018-04-17T07:28:17.941Z,1030.72
2018-04-17T07:29:17.947Z,1030.85
2018-04-17T07:30:17.955Z,1030.79
2018-04-17T07:31:17.981Z,1030.83
2018-04-17T07:32:17.974Z,1030.83
2018-04-17T07:33:17.985Z,1030.77
2018-04-17T07:34:17.993Z,1030.64
2018-04-17T07:35:18.003Z,1030.59
2018-04-17T07:36:18.012Z,1030.66
2018-04-17T07:37:18.023Z,1030.63
2018-04-17T07:38:18.031Z,1030.53
2018-04-17T07:39:18.041Z,1030.49
2018-04-17T07:40:18.150Z,1030.39
2018-04-17T07:41:18.061Z,1030.27
2018-04-17T07:42:18.076Z,1030.12
2018-04-17T07:43:18.089Z,1029.97
2018-04-17T07:44:18.091Z,1030.06
2018-04-17T07:45:18.102Z,1029.95
2018-04-17T07:46:18.108Z,1029.72
2018-04-17T07:47:18.120Z,1029.59
2018-04-17T07:48:18.128Z,1029.64
2018-04-17T07:49:18.140Z,1029.75
2018-04-17T07:50:18.150Z,1029.6
2018-04-17T07:51:18.159Z,1029.56
2018-04-17T07:52:18.181Z,1029.5
2018-04-17T07:53:18.184Z,1029.37
2018-04-17T07:54:18.193Z,1029.3
2018-04-17T07:55:18.206Z,1029.38
2018-04-17T07:56:18.213Z,1030.14
2018-04-17T07:57:18.228Z,1030.7
2018-04-17T07:58:18.233Z,1031.16
2018-04-17T07:59:18.249Z,1031.22
2018-04-17T08:00:18.253Z,1030.82
2018-04-17T08:01:18.280Z,1030.98
2018-04-17T08:02:18.291Z,1031.31
2018-04-17T08:03:18.284Z,1031.55
2018-04-17T08:04:18.294Z,1031.34
2018-04-17T08:05:18.304Z,1031.15
2018-04-17T08:06:18.313Z,1031.03
2018-04-17T08:07:18.325Z,1030.91
2018-04-17T08:08:18.344Z,1030.84
2018-04-17T08:09:18.347Z,1030.79
2018-04-17T08:10:18.354Z,1030.77
2018-04-17T08:11:18.360Z,1030.76
2018-04-17T08:12:18.370Z,1030.99
2018-04-17T08:13:18.384Z,1030.97
2018-04-17T08:14:18.389Z,1030.88
2018-04-17T08:15:18.403Z,1030.81
2018-04-17T08:16:18.408Z,1030.76
2018-04-17T08:17:18.421Z,1030.82
2018-04-17T08:18:18.427Z,1030.71
2018-04-17T08:19:18.439Z,1030.67
2018-04-17T08:20:18.447Z,1030.62
2018-04-17T08:21:18.457Z,1030.67
2018-04-17T08:22:18.465Z,1030.73
2018-04-17T08:23:18.475Z,1030.76
2018-04-17T08:24:18.484Z,1030.84
2018-04-17T08:25:18.493Z,1031.03
2018-04-17T08:26:18.502Z,1031.49
2018-04-17T08:27:18.513Z,1032
2018-04-17T08:28:18.530Z,1032.44
2018-04-17T08:29:18.533Z,1032.88
2018-04-17T08:30:18.539Z,1033.17
2018-04-17T08:31:18.555Z,1033.53
2018-04-17T08:32:18.556Z,1033.86
2018-04-17T08:33:18.570Z,1034.12
2018-04-17T08:34:18.572Z,1034.35
2018-04-17T08:35:18.585Z,1034.63
2018-04-17T08:36:18.587Z,1034.79
2018-04-17T08:37:18.599Z,1034.92
2018-04-17T08:38:18.606Z,1035.13
2018-04-17T08:39:18.610Z,1035.26
2018-04-17T08:40:18.618Z,1035.4
2018-04-17T08:41:18.621Z,1035.51
2018-04-17T08:42:18.627Z,1035.59
2018-04-17T08:43:18.630Z,1035.69
2018-04-17T08:44:18.636Z,1035.76
2018-04-17T08:46:18.646Z,1035.87
2018-04-17T08:47:18.649Z,1035.93
2018-04-17T08:48:18.672Z,1036.04
2018-04-17T08:49:18.658Z,1036.16
2018-04-17T08:50:18.664Z,1036.24
2018-04-17T08:51:18.677Z,1036.42
2018-04-17T08:52:18.668Z,1036.5
2018-04-17T08:53:18.672Z,1036.61
2018-04-17T08:54:18.674Z,1036.7
2018-04-17T08:55:18.677Z,1036.7
2018-04-17T08:56:18.679Z,1036.71
2018-04-17T08:57:18.690Z,1036.92
2018-04-17T08:58:18.683Z,1036.95
2018-04-17T08:59:18.687Z,1037
2018-04-17T09:00:18.707Z,1037
2018-04-17T09:01:18.690Z,1037.02
2018-04-17T09:02:18.710Z,1037.05
2018-04-17T09:03:18.696Z,1037.13
2018-04-17T09:04:18.696Z,1037.24
2018-04-17T09:05:18.767Z,1037.28
2018-04-17T09:06:18.703Z,1037.37
2018-04-17T09:07:18.696Z,1037.36
2018-04-17T09:08:18.701Z,1037.44
2018-04-17T09:09:18.698Z,1037.47
2018-04-17T09:10:18.700Z,1037.48
2018-04-17T09:11:18.703Z,1037.62
2018-04-17T09:12:18.700Z,1037.67
2018-04-17T09:13:18.701Z,1037.66
2018-04-17T09:14:18.701Z,1037.71
2018-04-17T09:15:18.702Z,1037.71
2018-04-17T09:16:18.702Z,1037.79
2018-04-17T09:17:18.703Z,1037.84
2018-04-17T09:18:18.702Z,1037.88
2018-04-17T09:19:18.702Z,1037.86
2018-04-17T09:20:18.701Z,1037.87
2018-04-17T09:21:18.703Z,1037.9
2018-04-17T09:22:18.714Z,1037.86
2018-04-17T09:23:18.712Z,1037.9
2018-04-17T09:24:18.700Z,1037.98
2018-04-17T09:25:18.703Z,1038.03
2018-04-17T09:26:18.700Z,1038.01
2018-04-17T09:27:18.703Z,1038.12
2018-04-17T09:28:18.700Z,1038.11
2018-04-17T09:29:18.735Z,1038.19
2018-04-17T09:30:18.696Z,1038.14
2018-04-17T09:31:18.709Z,1038.18
2018-04-17T09:32:18.702Z,1038.1
2018-04-17T09:34:18.697Z,1038.15
2018-04-17T09:35:18.707Z,1038.17
2018-04-17T09:36:18.708Z,1038.2
2018-04-17T09:37:18.709Z,1038.2
2018-04-17T09:38:18.703Z,1038.15
2018-04-17T09:39:18.705Z,1038.16
2018-04-17T09:40:18.694Z,1038.17
2018-04-17T09:41:18.698Z,1038.2
2018-04-17T09:42:18.696Z,1038.22
2018-04-17T09:43:18.683Z,1038.25
2018-04-17T09:44:18.702Z,1038.3
2018-04-17T09:45:18.690Z,1038.37
2018-04-17T09:46:18.687Z,1038.35
2018-04-17T09:47:18.693Z,1038.44
2018-04-17T09:48:18.678Z,1038.38
2018-04-17T09:49:18.679Z,1038.41
2018-04-17T09:50:18.695Z,1038.37
2018-04-17T09:51:18.673Z,1038.41
2018-04-17T09:52:18.686Z,1038.5
2018-04-17T09:53:18.690Z,1038.53
2018-04-17T09:54:18.684Z,1038.51
2018-04-17T09:55:18.668Z,1038.55
2018-04-17T09:56:18.666Z,1038.57
2018-04-17T09:57:18.665Z,1038.61
2018-04-17T09:58:18.664Z,1038.65
2018-04-17T09:59:18.673Z,1038.61
2018-04-17T10:00:18.662Z,1038.68
2018-04-17T10:01:18.671Z,1038.67
2018-04-17T10:02:18.660Z,1038.68
2018-04-17T10:03:18.656Z,1038.72
2018-04-17T10:04:18.654Z,1038.68
2018-04-17T10:05:18.658Z,1038.64
2018-04-17T10:06:18.653Z,1038.56
2018-04-17T10:07:18.650Z,1038.54
2018-04-17T10:08:18.647Z,1038.53
2018-04-17T10:09:18.645Z,1038.52
2018-04-17T10:10:18.647Z,1038.45
2018-04-17T10:11:18.651Z,1038.4
2018-04-17T10:12:18.641Z,1038.48
2018-04-17T10:13:18.642Z,1038.41
2018-04-17T10:14:18.639Z,1038.47
2018-04-17T10:15:18.635Z,1038.53
2018-04-17T10:16:18.638Z,1038.55
2018-04-17T10:17:18.704Z,1038.54
2018-04-17T10:18:18.641Z,1038.51
2018-04-17T10:19:18.627Z,1038.48
2018-04-17T10:20:18.627Z,1038.52
2018-04-17T10:21:18.627Z,1038.56
2018-04-17T10:22:18.636Z,1038.57
2018-04-17T10:23:18.630Z,1038.59
2018-04-17T10:24:18.619Z,1038.58
2018-04-17T10:25:18.616Z,1038.59
2018-04-17T10:26:18.614Z,1038.59
2018-04-17T10:27:18.615Z,1038.58
2018-04-17T10:28:18.616Z,1038.6
2018-04-17T10:29:18.625Z,1038.61
2018-04-17T10:30:18.636Z,1038.59
2018-04-17T10:31:18.611Z,1038.57
2018-04-17T10:32:18.603Z,1038.58
2018-04-17T10:33:18.603Z,1038.49
2018-04-17T10:34:18.602Z,1038.43
2018-04-17T10:35:18.602Z,1038.48
2018-04-17T10:36:18.595Z,1038.49
2018-04-17T10:37:18.601Z,1038.56
2018-04-17T10:38:18.607Z,1038.49
2018-04-17T10:39:18.604Z,1038.51
2018-04-17T10:40:18.595Z,1038.5
2018-04-17T10:41:18.597Z,1038.47
2018-04-17T10:42:18.590Z,1038.42
2018-04-17T10:43:18.582Z,1038.4
2018-04-17T10:44:18.581Z,1038.38
2018-04-17T10:45:18.579Z,1038.35
2018-04-17T10:46:18.577Z,1038.33
2018-04-17T10:47:18.573Z,1038.34
2018-04-17T10:48:18.572Z,1038.28
2018-04-17T10:49:18.571Z,1038.28
2018-04-17T10:50:18.569Z,1038.18
2018-04-17T10:51:18.566Z,1038.17
2018-04-17T10:52:18.566Z,1038.24
2018-04-17T10:53:18.562Z,1038.23
2018-04-17T10:54:18.580Z,1038.17
2018-04-17T10:55:18.595Z,1038.21
2018-04-17T10:56:18.560Z,1038.19
2018-04-17T10:57:18.811Z,1038.16
2018-04-17T10:58:18.568Z,1038.17
2018-04-17T10:59:18.557Z,1038.09
2018-04-17T11:00:18.550Z,1038.09
2018-04-17T11:01:18.550Z,1038.09
2018-04-17T11:02:18.545Z,1038.11
2018-04-17T11:03:18.598Z,1038.08
2018-04-17T11:04:18.545Z,1038.09
2018-04-17T11:05:18.547Z,1038.11
2018-04-17T11:06:18.538Z,1038.19
2018-04-17T11:07:18.541Z,1038.2
2018-04-17T11:08:18.536Z,1038.21
2018-04-17T11:09:18.535Z,1038.23
2018-04-17T11:10:18.533Z,1038.05
2018-04-17T11:11:18.530Z,1038.01
2018-04-17T11:12:18.535Z,1037.99
2018-04-17T11:13:18.527Z,1037.95
2018-04-17T11:14:18.540Z,1037.9
2018-04-17T11:15:18.525Z,1037.94
2018-04-17T11:16:18.559Z,1037.92
2018-04-17T11:17:18.520Z,1037.92
2018-04-17T11:18:18.527Z,1037.96
2018-04-17T11:19:18.516Z,1038
2018-04-17T11:20:18.513Z,1038.01
2018-04-17T11:21:18.514Z,1037.99
2018-04-17T11:22:18.512Z,1037.95
2018-04-17T11:23:18.525Z,1037.88
2018-04-17T11:24:18.507Z,1037.79
2018-04-17T11:25:18.505Z,1037.76
2018-04-17T11:26:18.504Z,1037.72
2018-04-17T11:27:18.503Z,1037.65
2018-04-17T11:28:18.515Z,1037.64
2018-04-17T11:29:18.500Z,1037.6
2018-04-17T11:30:18.503Z,1037.69
2018-04-17T11:31:18.496Z,1037.74
2018-04-17T11:32:18.498Z,1037.76
2018-04-17T11:33:18.494Z,1037.76
2018-04-17T11:34:18.493Z,1037.75
2018-04-17T11:35:18.490Z,1037.72
2018-04-17T11:36:18.490Z,1037.72
2018-04-17T11:37:18.488Z,1037.79
2018-04-17T11:38:18.486Z,1037.78
2018-04-17T11:39:18.485Z,1037.76
2018-04-17T11:40:18.485Z,1037.72
2018-04-17T11:41:18.500Z,1037.69
2018-04-17T11:42:18.489Z,1037.65
2018-04-17T11:43:18.478Z,1037.57
2018-04-17T11:44:18.478Z,1037.53
2018-04-17T11:45:18.477Z,1037.54
2018-04-17T11:46:18.475Z,1037.51
2018-04-17T11:47:18.474Z,1037.4
2018-04-17T11:48:18.473Z,1037.33
2018-04-17T11:49:18.471Z,1037.14
2018-04-17T11:50:18.482Z,1037.1
2018-04-17T11:51:18.469Z,1037.02
2018-04-17T11:52:18.469Z,1036.94
2018-04-17T11:53:18.467Z,1036.9
2018-04-17T11:54:18.466Z,1036.92
2018-04-17T11:55:18.467Z,1036.87
2018-04-17T11:56:18.465Z,1036.8
2018-04-17T11:57:18.463Z,1036.79
2018-04-17T11:58:18.465Z,1036.76
2018-04-17T11:59:18.462Z,1036.78
2018-04-17T12:00:18.461Z,1036.79
2018-04-17T12:01:18.461Z,1036.83
2018-04-17T12:02:18.474Z,1036.89
2018-04-17T12:03:18.477Z,1036.95
2018-04-17T12:04:18.459Z,1036.94
2018-04-17T12:05:18.458Z,1036.93
2018-04-17T12:06:18.460Z,1037.03
2018-04-17T12:07:18.457Z,1037.02
2018-04-17T12:08:18.457Z,1037.11
2018-04-17T12:09:18.457Z,1037.15
2018-04-17T12:10:18.458Z,1037.13